createdAt,value
2019-04-01T00:00:17.928Z,1012.98
2019-04-01T00:01:18.490Z,1012.99
2019-04-01T00:02:19.059Z,1012.97
2019-04-01T00:03:19.626Z,1012.96
2019-04-01T00:04:20.192Z,1012.94
2019-04-01T00:05:20.812Z,1012.94
2019-04-01T00:06:21.329Z,1012.95
2019-04-01T00:07:21.899Z,1012.97
2019-04-01T00:08:22.467Z,1013.02
2019-04-01T00:09:23.035Z,1012.99
2019-04-01T00:10:23.604Z,1012.97
2019-04-01T00:11:24.175Z,1012.95
2019-04-01T00:12:24.795Z,1012.96
2019-04-01T00:13:25.412Z,1013.01
2019-04-01T00:14:26.032Z,1013.01
2019-04-01T00:15:26.656Z,1012.91
2019-04-01T00:16:27.271Z,1012.91
2019-04-01T00:17:27.839Z,1012.97
2019-04-01T00:18:28.464Z,1012.99
2019-04-01T00:19:29.030Z,1012.89
2019-04-01T00:20:29.599Z,1012.92
2019-04-01T00:21:30.169Z,1012.99
2019-04-01T00:22:30.790Z,1013.05
2019-04-01T00:23:31.329Z,1012.96
2019-04-01T00:24:31.898Z,1012.97
2019-04-01T00:25:32.471Z,1013.02
2019-04-01T00:26:33.037Z,1013.01
2019-04-01T00:27:33.607Z,1013.05
2019-04-01T00:28:34.193Z,1013.08
2019-04-01T00:29:34.800Z,1013.08
2019-04-01T00:30:35.366Z,1013.06
2019-04-01T00:31:35.989Z,1013.04
2019-04-01T00:32:36.556Z,1013.09
2019-04-01T00:33:37.129Z,1013.03
2019-04-01T00:34:37.791Z,1013.11
2019-04-01T00:35:38.363Z,1013.02
2019-04-01T00:36:38.933Z,1013.07
2019-04-01T00:37:39.554Z,1013.13
2019-04-01T00:38:40.123Z,1013.08
2019-04-01T00:39:40.745Z,1013.08
2019-04-01T00:40:41.364Z,1013.12
2019-04-01T00:41:41.937Z,1013.09
2019-04-01T00:42:42.507Z,1013.06
2019-04-01T00:43:43.077Z,1013.03
2019-04-01T00:44:43.649Z,1013.08
2019-04-01T00:45:44.220Z,1013.07
2019-04-01T00:46:44.790Z,1013.08
2019-04-01T00:47:45.360Z,1013.08
2019-04-01T00:48:45.930Z,1013.17
2019-04-01T00:49:46.549Z,1013.13
2019-04-01T00:50:47.119Z,1013.11
2019-04-01T00:51:47.746Z,1013.14
2019-04-01T00:52:48.353Z,1013.10
2019-04-01T00:53:48.924Z,1013.12
2019-04-01T00:54:49.540Z,1013.16
2019-04-01T00:55:50.112Z,1013.19
2019-04-01T00:56:50.731Z,1013.17
2019-04-01T00:57:51.302Z,1013.10
2019-04-01T00:58:51.874Z,1013.05
2019-04-01T00:59:52.440Z,1013.05
2019-04-01T01:00:53.157Z,1013.11
2019-04-01T01:01:53.729Z,1012.98
2019-04-01T01:02:54.305Z,1013.11
2019-04-01T01:03:54.872Z,1013.14
2019-04-01T01:04:55.439Z,1013.03
2019-04-01T01:05:56.010Z,1013.01
2019-04-01T01:06:56.580Z,1013.05
2019-04-01T01:07:57.151Z,1013.05
2019-04-01T01:08:57.768Z,1012.98
2019-04-01T01:09:58.388Z,1013.01
2019-04-01T01:10:58.957Z,1013.01
2019-04-01T01:11:59.584Z,1012.94
2019-04-01T01:13:00.148Z,1012.96
2019-04-01T01:14:00.719Z,1012.99
2019-04-01T01:15:01.289Z,1012.95
2019-04-01T01:16:01.857Z,1013.03
2019-04-01T01:17:02.479Z,1012.98
2019-04-01T01:18:03.046Z,1012.94
2019-04-01T01:19:03.612Z,1013.00
2019-04-01T01:20:04.186Z,1012.91
2019-04-01T01:21:04.794Z,1013.03
2019-04-01T01:22:05.362Z,1012.95
2019-04-01T01:23:05.931Z,1013.03
2019-04-01T01:24:06.503Z,1012.94
2019-04-01T01:25:07.123Z,1012.91
2019-04-01T01:26:07.693Z,1012.96
2019-04-01T01:27:08.356Z,1012.93
2019-04-01T01:28:08.997Z,1013.07
2019-04-01T01:29:09.569Z,1012.95
2019-04-01T01:30:10.136Z,1013.01
2019-04-01T01:31:11.405Z,1013.03
2019-04-01T01:32:11.980Z,1012.95
2019-04-01T01:33:12.589Z,1012.97
2019-04-01T01:34:13.159Z,1012.98
2019-04-01T01:35:13.782Z,1013.02
2019-04-01T01:36:14.351Z,1013.02
2019-04-01T01:37:14.926Z,1013.09
2019-04-01T01:38:15.551Z,1013.00
2019-04-01T01:39:16.155Z,1013.06
2019-04-01T01:40:16.743Z,1012.97
2019-04-01T01:41:17.298Z,1013.01
2019-04-01T01:42:17.916Z,1013.07
2019-04-01T01:43:18.488Z,1013.13
2019-04-01T01:44:19.109Z,1013.11
2019-04-01T01:45:19.679Z,1013.15
2019-04-01T01:46:20.247Z,1013.11
2019-04-01T01:47:20.817Z,1013.11
2019-04-01T01:48:21.431Z,1013.13
2019-04-01T01:49:22.000Z,1013.19
2019-04-01T01:50:22.620Z,1013.11
2019-04-01T01:51:23.193Z,1013.13
2019-04-01T01:52:23.964Z,1013.17
2019-04-01T01:53:24.584Z,1013.17
2019-04-01T01:54:25.155Z,1013.15
2019-04-01T01:55:25.725Z,1013.13
2019-04-01T01:56:26.294Z,1013.06
2019-04-01T01:57:26.865Z,1013.10
2019-04-01T01:58:27.434Z,1013.10
2019-04-01T01:59:28.003Z,1013.10
2019-04-01T02:00:28.577Z,1013.07
2019-04-01T02:01:29.143Z,1013.05
2019-04-01T02:02:29.715Z,1013.12
2019-04-01T02:03:30.328Z,1013.12
2019-04-01T02:04:30.901Z,1013.14
2019-04-01T02:05:31.616Z,1013.11
2019-04-01T02:06:32.185Z,1013.11
2019-04-01T02:07:32.757Z,1013.04
2019-04-01T02:08:33.325Z,1013.09
2019-04-01T02:09:33.893Z,1013.04
2019-04-01T02:10:34.510Z,1013.09
2019-04-01T02:11:35.082Z,1013.04
2019-04-01T02:12:35.650Z,1013.09
2019-04-01T02:13:36.219Z,1013.09
2019-04-01T02:14:36.790Z,1013.03
2019-04-01T02:15:37.358Z,1013.00
2019-04-01T02:16:37.977Z,1012.97
2019-04-01T02:17:38.597Z,1013.01
2019-04-01T02:18:39.168Z,1012.97
2019-04-01T02:19:39.738Z,1013.02
2019-04-01T02:20:40.306Z,1013.00
2019-04-01T02:21:40.876Z,1013.02
2019-04-01T02:22:41.445Z,1013.01
2019-04-01T02:23:42.017Z,1013.00
2019-04-01T02:24:42.587Z,1012.98
2019-04-01T02:25:43.206Z,1012.99
2019-04-01T02:26:43.926Z,1013.03
2019-04-01T02:27:44.501Z,1012.99
2019-04-01T02:28:45.069Z,1013.03
2019-04-01T02:29:45.639Z,1012.97
2019-04-01T02:30:46.210Z,1013.01
2019-04-01T02:31:46.779Z,1013.03
2019-04-01T02:32:47.348Z,1012.94
2019-04-01T02:33:47.969Z,1012.97
2019-04-01T02:34:48.540Z,1013.02
2019-04-01T02:35:49.122Z,1013.02
2019-04-01T02:36:49.679Z,1012.99
2019-04-01T02:37:50.301Z,1012.96
2019-04-01T02:38:50.870Z,1013.01
2019-04-01T02:39:51.448Z,1012.96
2019-04-01T02:40:52.005Z,1012.89
2019-04-01T02:41:52.576Z,1012.93
2019-04-01T02:42:53.186Z,1012.94
2019-04-01T02:43:53.807Z,1012.90
2019-04-01T02:44:54.376Z,1012.91
2019-04-01T02:45:54.995Z,1012.87
2019-04-01T02:46:55.613Z,1012.87
2019-04-01T02:47:56.383Z,1012.87
2019-04-01T02:48:56.955Z,1012.86
2019-04-01T02:49:57.529Z,1012.87
2019-04-01T02:50:58.098Z,1012.86
2019-04-01T02:51:58.665Z,1012.82
2019-04-01T02:52:59.284Z,1012.91
2019-04-01T02:53:59.856Z,1012.90
2019-04-01T02:55:01.038Z,1012.86
2019-04-01T02:56:02.024Z,1012.91
2019-04-01T02:57:02.574Z,1012.84
2019-04-01T02:58:03.125Z,1012.83
2019-04-01T02:59:03.713Z,1012.83
2019-04-01T03:00:04.311Z,1012.83
2019-04-01T03:01:04.880Z,1012.83
2019-04-01T03:02:05.452Z,1012.89
2019-04-01T03:03:06.115Z,1012.87
2019-04-01T03:04:06.687Z,1012.88
2019-04-01T03:05:07.366Z,1012.87
2019-04-01T03:06:07.960Z,1012.87
2019-04-01T03:07:08.590Z,1012.84
2019-04-01T03:08:09.160Z,1012.85
2019-04-01T03:09:09.768Z,1012.89
2019-04-01T03:10:10.340Z,1012.84
2019-04-01T03:11:11.229Z,1012.91
2019-04-01T03:12:11.909Z,1012.86
2019-04-01T03:13:12.474Z,1012.94
2019-04-01T03:14:13.052Z,1012.82
2019-04-01T03:15:13.610Z,1012.84
2019-04-01T03:16:14.187Z,1012.86
2019-04-01T03:17:14.767Z,1012.84
2019-04-01T03:18:15.317Z,1012.85
2019-04-01T03:19:15.939Z,1012.82
2019-04-01T03:20:16.553Z,1012.83
2019-04-01T03:21:17.122Z,1012.82
2019-04-01T03:22:17.742Z,1012.85
2019-04-01T03:23:18.314Z,1012.89
2019-04-01T03:24:18.881Z,1012.79
2019-04-01T03:25:19.450Z,1012.85
2019-04-01T03:26:20.020Z,1012.86
2019-04-01T03:27:20.589Z,1012.84
2019-04-01T03:28:21.173Z,1012.82
2019-04-01T03:29:21.778Z,1012.78
2019-04-01T03:30:22.385Z,1012.77
2019-04-01T03:31:22.955Z,1012.84
2019-04-01T03:32:23.577Z,1012.78
2019-04-01T03:33:24.185Z,1012.82
2019-04-01T03:34:24.735Z,1012.74
2019-04-01T03:35:25.340Z,1012.77
2019-04-01T03:36:25.911Z,1012.75
2019-04-01T03:37:26.625Z,1012.81
2019-04-01T03:38:28.054Z,1012.76
2019-04-01T03:39:28.767Z,1012.78
2019-04-01T03:40:29.377Z,1012.78
2019-04-01T03:41:29.949Z,1012.73
2019-04-01T03:42:30.518Z,1012.78
2019-04-01T03:43:31.086Z,1012.79
2019-04-01T03:44:31.660Z,1012.75
2019-04-01T03:45:32.313Z,1012.73
2019-04-01T03:46:32.891Z,1012.70
2019-04-01T03:47:33.500Z,1012.71
2019-04-01T03:48:34.128Z,1012.74
2019-04-01T03:49:34.694Z,1012.66
2019-04-01T03:50:35.267Z,1012.66
2019-04-01T03:51:35.871Z,1012.61
2019-04-01T03:52:36.490Z,1012.70
2019-04-01T03:53:37.058Z,1012.81
2019-04-01T03:54:37.628Z,1012.71
2019-04-01T03:55:38.197Z,1012.72
2019-04-01T03:56:38.816Z,1012.73
2019-04-01T03:57:39.384Z,1012.74
2019-04-01T03:58:39.955Z,1012.86
2019-04-01T03:59:40.578Z,1012.75
2019-04-01T04:00:41.138Z,1012.77
2019-04-01T04:01:41.708Z,1012.88
2019-04-01T04:02:42.287Z,1012.76
2019-04-01T04:03:42.849Z,1012.87
2019-04-01T04:04:43.425Z,1012.83
2019-04-01T04:05:43.987Z,1012.85
2019-04-01T04:06:44.558Z,1012.85
2019-04-01T04:07:45.130Z,1012.83
2019-04-01T04:08:45.792Z,1012.78
2019-04-01T04:09:46.359Z,1012.87
2019-04-01T04:10:46.978Z,1012.89
2019-04-01T04:11:47.549Z,1012.90
2019-04-01T04:12:48.118Z,1012.81
2019-04-01T04:13:48.691Z,1012.89
2019-04-01T04:14:51.448Z,1012.87
2019-04-01T04:15:49.916Z,1012.91
2019-04-01T04:16:50.486Z,1012.95
2019-04-01T04:17:51.112Z,1012.87
2019-04-01T04:18:51.726Z,1012.89
2019-04-01T04:19:52.290Z,1012.81
2019-04-01T04:20:52.864Z,1012.88
2019-04-01T04:21:53.433Z,1012.89
2019-04-01T04:22:53.993Z,1012.84
2019-04-01T04:23:54.616Z,1012.86
2019-04-01T04:24:55.191Z,1012.81
2019-04-01T04:25:55.854Z,1012.88
2019-04-01T04:26:56.421Z,1012.85
2019-04-01T04:27:56.991Z,1012.87
2019-04-01T04:28:57.563Z,1012.76
2019-04-01T04:29:58.171Z,1012.84
2019-04-01T04:30:58.743Z,1012.87
2019-04-01T04:31:59.367Z,1012.86
2019-04-01T04:32:59.999Z,1012.80
2019-04-01T04:34:00.599Z,1012.87
2019-04-01T04:35:01.172Z,1012.84
2019-04-01T04:36:01.740Z,1012.77
2019-04-01T04:37:02.315Z,1012.82
2019-04-01T04:38:02.879Z,1012.88
2019-04-01T04:39:03.451Z,1012.88
2019-04-01T04:40:04.019Z,1012.85
2019-04-01T04:41:04.632Z,1012.92
2019-04-01T04:42:05.202Z,1012.85
2019-04-01T04:43:05.823Z,1012.85
2019-04-01T04:44:06.393Z,1012.91
2019-04-01T04:45:06.962Z,1012.90
2019-04-01T04:46:07.532Z,1012.91
2019-04-01T04:47:08.151Z,1012.97
2019-04-01T04:48:08.720Z,1013.00
2019-04-01T04:49:09.290Z,1012.89
2019-04-01T04:50:09.860Z,1012.86
2019-04-01T04:52:12.049Z,1012.91
2019-04-01T04:56:29.485Z,1012.86
2019-04-01T04:57:43.773Z,1012.89
2019-04-01T04:58:44.349Z,1012.89
2019-04-01T04:59:44.976Z,1012.89
2019-04-01T05:00:45.552Z,1012.91
2019-04-01T05:01:46.127Z,1012.92
2019-04-01T05:02:46.709Z,1012.94
2019-04-01T05:03:47.325Z,1012.95
2019-04-01T05:04:47.906Z,1012.93
2019-04-01T05:05:48.479Z,1012.92
2019-04-01T05:12:58.609Z,1012.80
2019-04-01T05:13:59.178Z,1012.94
2019-04-01T05:14:59.743Z,1012.91
2019-04-01T05:16:01.524Z,1012.90
2019-04-01T05:17:15.884Z,1012.92
2019-04-01T05:18:16.399Z,1012.98
2019-04-01T05:19:16.966Z,1013.00
2019-04-01T05:20:17.736Z,1012.94
2019-04-01T05:21:18.452Z,1013.01
2019-04-01T05:22:19.026Z,1013.03
2019-04-01T05:23:19.588Z,1013.05
2019-04-01T05:24:20.158Z,1013.02
2019-04-01T05:25:20.767Z,1013.11
2019-04-01T05:26:21.385Z,1013.08
2019-04-01T05:27:21.983Z,1013.09
2019-04-01T05:28:22.550Z,1013.11
2019-04-01T05:29:23.119Z,1013.14
2019-04-01T05:30:23.738Z,1013.10
2019-04-01T05:31:24.395Z,1013.11
2019-04-01T05:32:24.965Z,1013.16
2019-04-01T05:33:25.537Z,1013.14
2019-04-01T05:34:26.156Z,1013.10
2019-04-01T05:35:26.780Z,1013.13
2019-04-01T05:36:27.347Z,1013.18
2019-04-01T05:37:27.913Z,1013.17
2019-04-01T05:38:28.484Z,1013.24
2019-04-01T05:39:29.052Z,1013.25
2019-04-01T05:40:29.622Z,1013.27
2019-04-01T05:41:30.194Z,1013.18
2019-04-01T05:42:30.761Z,1013.16
2019-04-01T05:43:31.387Z,1013.26
2019-04-01T05:44:31.951Z,1013.26
2019-04-01T05:45:32.522Z,1013.23
2019-04-01T05:46:33.090Z,1013.30
2019-04-01T05:47:33.711Z,1013.29
2019-04-01T05:48:34.354Z,1013.28
2019-04-01T05:49:34.874Z,1013.30
2019-04-01T05:50:35.497Z,1013.25
2019-04-01T05:51:36.065Z,1013.33
2019-04-01T05:52:36.633Z,1013.34
2019-04-01T05:53:37.203Z,1013.38
2019-04-01T05:54:37.772Z,1013.41
2019-04-01T05:55:38.340Z,1013.45
2019-04-01T05:56:38.908Z,1013.38
2019-04-01T05:57:39.478Z,1013.38
2019-04-01T05:58:40.044Z,1013.47
2019-04-01T05:59:40.612Z,1013.44
2019-04-01T06:00:41.183Z,1013.45
2019-04-01T06:01:41.825Z,1013.55
2019-04-01T06:02:42.457Z,1013.54
2019-04-01T06:03:42.976Z,1013.52
2019-04-01T06:04:43.547Z,1013.56
2019-04-01T06:05:44.116Z,1013.47
2019-04-01T06:06:44.737Z,1013.58
2019-04-01T06:07:45.305Z,1013.50
2019-04-01T06:08:45.925Z,1013.50
2019-04-01T06:09:46.494Z,1013.54
2019-04-01T06:10:47.063Z,1013.56
2019-04-01T06:11:47.644Z,1013.54
2019-04-01T06:12:48.253Z,1013.64
2019-04-01T06:13:48.868Z,1013.61
2019-04-01T06:14:49.438Z,1013.64
2019-04-01T06:15:50.010Z,1013.60
2019-04-01T06:16:50.580Z,1013.70
2019-04-01T06:17:51.147Z,1013.64
2019-04-01T06:18:51.718Z,1013.65
2019-04-01T06:19:52.289Z,1013.66
2019-04-01T06:20:52.906Z,1013.64
2019-04-01T06:21:53.475Z,1013.69
2019-04-01T06:22:54.045Z,1013.73
2019-04-01T06:23:54.764Z,1013.73
2019-04-01T06:24:55.384Z,1013.68
2019-04-01T06:25:56.002Z,1013.73
2019-04-01T06:26:56.572Z,1013.77
2019-04-01T06:27:57.144Z,1013.79
2019-04-01T06:28:57.762Z,1013.75
2019-04-01T06:29:59.326Z,1013.75
2019-04-01T06:30:59.893Z,1013.81
2019-04-01T06:32:00.464Z,1013.81
2019-04-01T06:33:01.031Z,1013.77
2019-04-01T06:34:01.651Z,1013.80
2019-04-01T06:35:02.218Z,1013.84
2019-04-01T06:36:02.787Z,1013.82
2019-04-01T06:37:03.357Z,1013.79
2019-04-01T06:38:03.927Z,1013.84
2019-04-01T06:39:04.497Z,1013.87
2019-04-01T06:40:05.067Z,1013.92
2019-04-01T06:41:05.640Z,1013.84
2019-04-01T06:42:07.333Z,1013.85
2019-04-01T06:43:07.821Z,1013.95
2019-04-01T06:44:08.390Z,1013.97
2019-04-01T06:45:08.964Z,1013.99
2019-04-01T06:46:09.528Z,1014.01
2019-04-01T06:47:10.152Z,1014.03
2019-04-01T06:48:10.902Z,1014.01
2019-04-01T06:49:11.426Z,1014.01
2019-04-01T06:50:11.997Z,1013.99
2019-04-01T06:51:12.565Z,1013.97
2019-04-01T06:52:13.135Z,1014.01
2019-04-01T06:53:13.704Z,1013.96
2019-04-01T06:54:14.272Z,1014.06
2019-04-01T06:55:14.840Z,1014.02
2019-04-01T06:56:15.408Z,1014.11
2019-04-01T06:57:16.127Z,1013.99
2019-04-01T06:58:16.697Z,1014.13
2019-04-01T06:59:17.265Z,1014.06
2019-04-01T07:00:17.836Z,1014.11
2019-04-01T07:01:18.402Z,1014.18
2019-04-01T07:02:18.974Z,1014.12
2019-04-01T07:03:19.591Z,1014.16
2019-04-01T07:04:20.162Z,1014.13
2019-04-01T07:05:20.731Z,1014.22
2019-04-01T07:06:21.308Z,1014.19
2019-04-01T07:07:21.908Z,1014.20
2019-04-01T07:08:22.478Z,1014.22
2019-04-01T07:09:23.201Z,1014.24
2019-04-01T07:10:25.022Z,1014.24
2019-04-01T07:11:25.394Z,1014.25
2019-04-01T07:12:25.942Z,1014.24
2019-04-01T07:13:26.508Z,1014.27
2019-04-01T07:14:27.077Z,1014.29
2019-04-01T07:15:27.647Z,1014.26
2019-04-01T07:16:28.218Z,1014.29
2019-04-01T07:17:28.787Z,1014.31
2019-04-01T07:18:29.358Z,1014.25
2019-04-01T07:19:29.931Z,1014.33
2019-04-01T07:20:30.542Z,1014.31
2019-04-01T07:21:31.111Z,1014.28
2019-04-01T07:22:31.680Z,1014.32
2019-04-01T07:23:32.299Z,1014.40
2019-04-01T07:24:32.868Z,1014.39
2019-04-01T07:25:34.282Z,1014.43
2019-04-01T07:26:34.883Z,1014.37
2019-04-01T07:27:35.452Z,1014.41
2019-04-01T07:28:36.025Z,1014.41
2019-04-01T07:29:36.593Z,1014.43
2019-04-01T07:30:37.162Z,1014.46
2019-04-01T07:31:37.732Z,1014.47
2019-04-01T07:32:38.301Z,1014.48
2019-04-01T07:33:38.869Z,1014.50
2019-04-01T07:34:39.491Z,1014.52
2019-04-01T07:35:40.059Z,1014.57
2019-04-01T07:36:40.678Z,1014.49
2019-04-01T07:37:41.293Z,1014.44
2019-04-01T07:38:41.859Z,1014.54
2019-04-01T07:39:42.428Z,1014.46
2019-04-01T07:40:42.997Z,1014.60
2019-04-01T07:41:43.567Z,1014.53
2019-04-01T07:42:44.135Z,1014.55
2019-04-01T07:43:44.705Z,1014.57
2019-04-01T07:44:45.273Z,1014.56
2019-04-01T07:45:45.840Z,1014.65
2019-04-01T07:46:46.411Z,1014.54
2019-04-01T07:47:47.030Z,1014.62
2019-04-01T07:48:47.598Z,1014.65
2019-04-01T07:49:48.168Z,1014.58
2019-04-01T07:50:48.738Z,1014.64
2019-04-01T07:51:49.494Z,1014.67
2019-04-01T07:52:50.022Z,1014.61
2019-04-01T07:53:50.645Z,1014.70
2019-04-01T07:54:51.212Z,1014.70
2019-04-01T07:55:51.779Z,1014.74
2019-04-01T07:56:52.348Z,1014.74
2019-04-01T07:57:52.920Z,1014.72
2019-04-01T07:58:53.488Z,1014.75
2019-04-01T07:59:56.795Z,1014.83
2019-04-01T08:00:55.621Z,1014.82
2019-04-01T08:01:56.239Z,1014.83
2019-04-01T08:02:56.808Z,1014.84
2019-04-01T08:03:57.378Z,1014.91
2019-04-01T08:04:57.948Z,1014.92
2019-04-01T08:05:58.568Z,1014.87
2019-04-01T08:06:59.134Z,1014.85
2019-04-01T08:07:59.705Z,1014.89
2019-04-01T08:09:00.274Z,1014.87
2019-04-01T08:10:00.895Z,1014.95
2019-04-01T08:11:01.463Z,1014.97
2019-04-01T08:12:02.128Z,1014.89
2019-04-01T08:13:02.697Z,1014.93
2019-04-01T08:14:03.263Z,1014.99
2019-04-01T08:15:03.884Z,1014.95
2019-04-01T08:16:04.450Z,1014.93
2019-04-01T08:17:05.021Z,1014.93
2019-04-01T08:18:05.587Z,1014.98
2019-04-01T08:19:06.158Z,1015.07
2019-04-01T08:20:06.725Z,1015.00
2019-04-01T08:21:07.297Z,1015.05
2019-04-01T08:22:07.863Z,1015.02
2019-04-01T08:23:08.450Z,1015.07
2019-04-01T08:24:09.021Z,1015.06
2019-04-01T08:25:09.589Z,1015.09
2019-04-01T08:26:10.208Z,1015.09
2019-04-01T08:27:10.826Z,1015.13
2019-04-01T08:28:11.397Z,1015.13
2019-04-01T08:29:11.965Z,1015.09
2019-04-01T08:30:12.536Z,1015.13
2019-04-01T08:31:13.520Z,1015.13
2019-04-01T08:32:14.365Z,1015.21
2019-04-01T08:37:05.121Z,1015.18
2019-04-01T08:38:05.687Z,1015.14
2019-04-01T08:41:13.450Z,1015.19
2019-04-01T09:00:08.226Z,1015.27
2019-04-01T09:01:08.793Z,1015.35
2019-04-01T09:02:17.865Z,1015.35
2019-04-01T09:03:10.989Z,1015.39
2019-04-01T09:04:11.570Z,1015.35
2019-04-01T09:05:12.190Z,1015.40
2019-04-01T09:06:12.787Z,1015.44
2019-04-01T09:07:13.440Z,1015.45
2019-04-01T09:08:14.056Z,1015.42
2019-04-01T09:10:51.344Z,1015.48
2019-04-01T09:11:51.911Z,1015.46
2019-04-01T09:12:52.525Z,1015.50
2019-04-01T09:13:53.095Z,1015.44
2019-04-01T09:14:53.662Z,1015.58
2019-04-01T09:15:54.230Z,1015.57
2019-04-01T09:16:54.816Z,1015.59
2019-04-01T09:17:55.413Z,1015.54
2019-04-01T09:18:56.130Z,1015.52
2019-04-01T09:19:56.710Z,1015.61
2019-04-01T09:20:57.378Z,1015.59
2019-04-01T09:21:57.954Z,1015.60
2019-04-01T09:22:59.382Z,1015.59
2019-04-01T09:24:00.015Z,1015.60
2019-04-01T09:25:00.589Z,1015.58
2019-04-01T09:26:01.168Z,1015.62
2019-04-01T09:27:01.745Z,1015.57
2019-04-01T09:28:02.329Z,1015.61
2019-04-01T09:29:02.897Z,1015.56
2019-04-01T09:30:03.477Z,1015.60
2019-04-01T09:31:04.100Z,1015.59
2019-04-01T09:32:04.676Z,1015.58
2019-04-01T09:33:05.255Z,1015.66
2019-04-01T09:34:05.830Z,1015.63
2019-04-01T09:35:06.408Z,1015.69
2019-04-01T09:36:06.983Z,1015.70
2019-04-01T09:37:07.561Z,1015.72
2019-04-01T09:38:08.137Z,1015.69
2019-04-01T09:39:08.715Z,1015.74
2019-04-01T09:40:09.292Z,1015.70
2019-04-01T09:41:13.141Z,1015.73
2019-04-01T09:42:11.488Z,1015.75
2019-04-01T09:43:14.129Z,1015.79
2019-04-01T09:44:13.632Z,1015.76
2019-04-01T09:45:14.211Z,1015.76
2019-04-01T09:46:14.874Z,1015.75
2019-04-01T09:47:15.501Z,1015.81
2019-04-01T09:48:16.080Z,1015.73
2019-04-01T09:49:16.652Z,1015.79
2019-04-01T09:50:17.228Z,1015.75
2019-04-01T09:51:17.804Z,1015.82
2019-04-01T09:52:18.431Z,1015.77
2019-04-01T09:53:19.007Z,1015.79
2019-04-01T09:54:19.623Z,1015.83
2019-04-01T09:55:20.196Z,1015.82
2019-04-01T09:56:20.821Z,1015.82
2019-04-01T09:57:21.400Z,1015.80
2019-04-01T09:58:22.027Z,1015.78
2019-04-01T09:59:22.599Z,1015.87
2019-04-01T10:00:23.176Z,1015.70
2019-04-01T10:01:23.754Z,1015.78
2019-04-01T10:02:31.630Z,1015.77
2019-04-01T10:03:25.900Z,1015.76
2019-04-01T10:04:26.476Z,1015.78
2019-04-01T10:05:27.052Z,1015.83
2019-04-01T10:06:27.678Z,1015.81
2019-04-01T10:07:28.272Z,1015.77
2019-04-01T10:08:41.501Z,1015.74
2019-04-01T10:09:30.439Z,1015.73
2019-04-01T10:10:31.023Z,1015.75
2019-04-01T10:11:31.591Z,1015.80
2019-04-01T10:12:32.169Z,1015.83
2019-04-01T10:13:32.748Z,1015.84
2019-04-01T10:14:33.368Z,1015.84
2019-04-01T10:15:33.943Z,1015.82
2019-04-01T10:16:34.571Z,1015.83
2019-04-01T10:17:35.145Z,1015.92
2019-04-01T10:18:35.812Z,1015.85
2019-04-01T10:19:36.389Z,1015.93
2019-04-01T10:20:36.965Z,1015.99
2019-04-01T10:21:37.594Z,1015.97
2019-04-01T10:22:38.170Z,1015.89
2019-04-01T10:23:38.792Z,1015.88
2019-04-01T10:24:39.370Z,1015.97
2019-04-01T10:25:40.030Z,1015.95
2019-04-01T10:26:40.614Z,1015.95
2019-04-01T10:27:41.190Z,1015.94
2019-04-01T10:28:41.762Z,1015.92
2019-04-01T10:29:42.419Z,1015.92
2019-04-01T10:30:42.970Z,1016.02
2019-04-01T10:31:43.598Z,1015.96
2019-04-01T10:32:44.171Z,1015.93
2019-04-01T10:33:44.747Z,1016.01
2019-04-01T10:34:45.324Z,1015.95
2019-04-01T10:35:45.898Z,1016.05
2019-04-01T10:36:46.474Z,1015.95
2019-04-01T10:37:47.054Z,1016.03
2019-04-01T10:38:47.677Z,1015.96
2019-04-01T10:39:48.302Z,1015.97
2019-04-01T10:40:48.878Z,1016.03
2019-04-01T10:41:49.450Z,1015.99
2019-04-01T10:42:50.075Z,1015.96
2019-04-01T10:43:50.658Z,1015.97
2019-04-01T10:44:51.228Z,1015.96
2019-04-01T10:45:52.007Z,1015.95
2019-04-01T10:46:52.782Z,1016.04
2019-04-01T10:47:53.407Z,1016.00
2019-04-01T10:48:53.966Z,1015.94
2019-04-01T10:49:54.549Z,1016.00
2019-04-01T10:50:55.175Z,1016.00
2019-04-01T10:51:55.730Z,1016.05
2019-04-01T10:52:56.336Z,1016.04
2019-04-01T10:53:56.982Z,1016.09
2019-04-01T10:54:57.629Z,1016.06
2019-04-01T10:55:58.173Z,1016.04
2019-04-01T10:56:58.769Z,1016.02
2019-04-01T10:57:59.337Z,1016.01
2019-04-01T10:58:59.879Z,1016.00
2019-04-01T11:00:00.495Z,1016.06
2019-04-01T11:01:01.147Z,1015.97
2019-04-01T11:02:01.899Z,1015.98
2019-04-01T11:03:05.924Z,1015.99
2019-04-01T11:04:04.088Z,1016.02
2019-04-01T11:05:04.652Z,1016.02
2019-04-01T11:06:05.258Z,1016.02
2019-04-01T11:07:05.843Z,1016.08
2019-04-01T11:08:06.435Z,1016.02
2019-04-01T11:09:07.038Z,1016.02
2019-04-01T11:10:11.108Z,1016.08
2019-04-01T11:11:08.865Z,1015.98
2019-04-01T11:12:09.441Z,1015.98
2019-04-01T11:13:10.016Z,1015.99
2019-04-01T11:14:10.642Z,1016.03
2019-04-01T11:15:15.033Z,1016.05
2019-04-01T11:16:12.793Z,1015.98
2019-04-01T11:17:13.365Z,1015.97
2019-04-01T11:18:13.940Z,1016.11
2019-04-01T11:19:14.518Z,1015.99
2019-04-01T11:20:15.169Z,1016.00
2019-04-01T11:21:15.721Z,1016.05
2019-04-01T11:22:16.298Z,1016.02
2019-04-01T11:23:16.922Z,1015.97
2019-04-01T11:24:17.499Z,1016.05
2019-04-01T11:25:18.085Z,1015.97
2019-04-01T11:26:18.654Z,1016.00
2019-04-01T11:27:19.230Z,1015.94
2019-04-01T11:28:19.855Z,1016.05
2019-04-01T11:29:20.431Z,1016.07
2019-04-01T11:30:26.412Z,1016.02
2019-04-01T11:31:27.211Z,1015.97
2019-04-01T11:32:27.917Z,1016.00
2019-04-01T11:33:28.759Z,1015.96
2019-04-01T11:34:29.327Z,1015.97
2019-04-01T11:35:29.907Z,1016.00
2019-04-01T11:36:30.511Z,1016.00
2019-04-01T11:37:31.040Z,1016.00
2019-04-01T11:38:31.722Z,1015.99
2019-04-01T11:39:32.333Z,1016.02
2019-04-01T11:40:32.917Z,1015.97
2019-04-01T11:41:33.559Z,1015.99
2019-04-01T11:42:34.294Z,1016.02
2019-04-01T11:43:35.658Z,1015.95
2019-04-01T11:44:36.419Z,1015.98
2019-04-01T11:45:37.019Z,1015.97
2019-04-01T11:46:37.612Z,1015.89
2019-04-01T11:47:38.256Z,1016.00
2019-04-01T11:48:38.850Z,1015.91
2019-04-01T11:49:39.487Z,1015.96
2019-04-01T11:50:40.065Z,1015.86
2019-04-01T11:51:40.652Z,1015.91
2019-04-01T11:52:41.211Z,1015.89
2019-04-01T11:53:41.806Z,1015.97
2019-04-01T11:54:42.382Z,1015.91
2019-04-01T11:55:42.969Z,1015.91
2019-04-01T11:56:43.534Z,1015.90
2019-04-01T11:57:44.111Z,1015.89
2019-04-01T11:58:44.687Z,1015.94
2019-04-01T11:59:45.306Z,1015.91
2019-04-01T12:00:45.933Z,1015.87
2019-04-01T12:01:47.325Z,1015.92
2019-04-01T12:02:48.024Z,1015.90
2019-04-01T12:03:48.600Z,1015.97
2019-04-01T12:04:49.273Z,1015.91
2019-04-01T12:05:49.848Z,1015.91
2019-04-01T12:06:50.423Z,1015.94
2019-04-01T12:07:50.999Z,1015.96
2019-04-01T12:08:51.623Z,1015.91
2019-04-01T12:09:52.512Z,1016.02
2019-04-01T12:10:53.080Z,1016.00
2019-04-01T12:11:53.661Z,1016.10
2019-04-01T12:12:54.276Z,1015.99
2019-04-01T12:13:54.852Z,1016.04
2019-04-01T12:14:55.428Z,1016.00
2019-04-01T12:15:56.004Z,1016.00
2019-04-01T12:16:56.657Z,1015.99
2019-04-01T12:17:57.234Z,1016.01
2019-04-01T12:18:57.811Z,1016.07
2019-04-01T12:19:58.386Z,1016.06
2019-04-01T12:20:58.960Z,1016.06
2019-04-01T12:21:59.537Z,1016.00
2019-04-01T12:23:00.113Z,1016.05
2019-04-01T12:24:00.688Z,1016.08
2019-04-01T12:25:01.266Z,1016.02
2019-04-01T12:26:14.323Z,1016.10
2019-04-01T12:27:02.549Z,1015.90
2019-04-01T12:28:03.226Z,1015.98
2019-04-01T12:29:03.820Z,1016.01
2019-04-01T12:30:04.595Z,1016.02
2019-04-01T12:31:05.204Z,1016.02
2019-04-01T12:32:05.781Z,1015.99
2019-04-01T12:33:06.356Z,1016.15
2019-04-01T12:34:06.998Z,1015.99
2019-04-01T12:35:07.541Z,1016.08
2019-04-01T12:36:11.450Z,1016.05
2019-04-01T12:37:09.737Z,1016.01
2019-04-01T12:38:10.311Z,1016.05
2019-04-01T12:39:10.888Z,1016.00
2019-04-01T12:40:11.472Z,1016.03
2019-04-01T12:41:12.038Z,1016.02
2019-04-01T12:42:12.612Z,1016.02
2019-04-01T12:43:13.187Z,1015.95
2019-04-01T12:44:13.761Z,1015.99
2019-04-01T12:45:14.387Z,1016.01
2019-04-01T12:46:15.013Z,1016.04
2019-04-01T12:47:15.587Z,1015.99
2019-04-01T12:48:16.162Z,1016.07
2019-04-01T12:49:16.739Z,1016.03